Germantown, Wisconsin
Current Conditions -  °F | °C
As of 4:45 PM on Monday 20 Oct 2014 (Local Time) from KMWC Reporting Station
Overcast Overcast  
Wind Chill: 54°   Ceiling: 4400
Heat Index: 54°   Visibility: 10mi
Dew Point: 41°   Wind: 12mph
Humidity: 62%   Direction: 340°NNW
Pressure: 29.92"   Gusts: NA
Location:  43.22°N, 88.12°W
Report Text: KMWC 202145Z AUTO 34010KT 10SM OVC044 12/05 A2992
Loading
Personal Weather Stations






























Interactive Weather Map
Tropical Storm Tracking
New forecast layout! Learn more

10-Day Weather Forecast

Advertisements
Track Severe Weather on mobile